Time;durP1;ratioP1;P1;durP2;ratioP2;P2;SDS_P1;SDS_P2;PMS_P1;PMS_P2;Temp;Humidity;BMP_temperature;BMP_pressure;BME280_temperature;BME280_humidity;BME280_pressure;Samples;Min_cycle;Max_cycle;Signal;HPM_P1;HPM_P2
2022/04/11 00:01:17;;;;;;;;;;;6.00;81.90;;;;;;5081549;28;20163;-77
2022/04/11 00:03:43;;;;;;;;;;;5.90;81.90;;;;;;5084909;28;19928;-77
2022/04/11 00:06:10;;;;;;;;;;;5.90;81.90;;;;;;5085973;28;19943;-77
2022/04/11 00:08:38;;;;;;;;;;;5.90;82.00;;;;;;5086612;28;19939;-77
2022/04/11 00:11:04;;;;;;;;;;;5.90;82.10;;;;;;5082686;28;21271;-77
2022/04/11 00:13:31;;;;;;;;;;;5.90;82.80;;;;;;5085686;28;19932;-78
2022/04/11 00:15:57;;;;;;;;;;;5.90;82.20;;;;;;5082703;28;19928;-77
2022/04/11 00:18:25;;;;;;;;;;;5.90;82.20;;;;;;5081877;28;19935;-79
2022/04/11 00:20:52;;;;;;;;;;;5.80;82.20;;;;;;5082432;28;19939;-78
2022/04/11 00:23:19;;;;;;;;;;;5.80;82.20;;;;;;5079872;28;19963;-79
2022/04/11 00:25:45;;;;;;;;;;;5.80;82.30;;;;;;5083580;28;19967;-77
2022/04/11 00:28:12;;;;;;;;;;;5.80;82.40;;;;;;5082497;28;19940;-75
2022/04/11 00:30:38;;;;;;;;;;;5.80;82.60;;;;;;5080458;28;19930;-77
2022/04/11 00:33:05;;;;;;;;;;;5.70;82.40;;;;;;5085091;28;19928;-79
2022/04/11 00:35:33;;;;;;;;;;;5.70;82.50;;;;;;5080359;28;19935;-77
2022/04/11 00:38:00;;;;;;;;;;;5.70;82.40;;;;;;5079359;28;19928;-78
2022/04/11 00:40:26;;;;;;;;;;;5.60;82.40;;;;;;5088391;28;19939;-77
2022/04/11 00:42:53;;;;;;;;;;;5.60;82.40;;;;;;5081503;28;19943;-77
2022/04/11 00:45:19;;;;;;;;;;;5.60;82.50;;;;;;5082820;28;19928;-78
2022/04/11 00:47:46;;;;;;;;;;;5.60;82.50;;;;;;5084894;28;19927;-77
2022/04/11 00:50:13;;;;;;;;;;;5.60;82.60;;;;;;5080732;28;19928;-76
2022/04/11 00:52:43;;;;;;;;;;;5.50;82.60;;;;;;5081193;28;19975;-78
2022/04/11 00:55:10;;;;;;;;;;;5.50;82.60;;;;;;5081817;28;20391;-79
2022/04/11 00:57:37;;;;;;;;;;;5.60;82.80;;;;;;5085069;28;19938;-78
2022/04/11 01:00:06;;;;;;;;;;;5.50;82.70;;;;;;5081197;28;19931;-77
2022/04/11 01:02:33;;;;;;;;;;;5.50;82.70;;;;;;5083865;28;19928;-76
2022/04/11 01:05:00;;;;;;;;;;;5.50;82.80;;;;;;5082569;28;19927;-78
2022/04/11 01:07:26;;;;;;;;;;;5.40;82.80;;;;;;5082693;28;20356;-79
2022/04/11 01:09:55;;;;;;;;;;;5.40;82.80;;;;;;5082302;28;19932;-77
2022/04/11 01:12:22;;;;;;;;;;;5.40;82.90;;;;;;5081320;28;19932;-77
2022/04/11 01:14:49;;;;;;;;;;;5.40;83.00;;;;;;5079501;28;20399;-76
2022/04/11 01:17:15;;;;;;;;;;;5.40;83.20;;;;;;5083445;28;19928;-75
2022/04/11 01:19:42;;;;;;;;;;;5.30;83.20;;;;;;5082735;28;19935;-78
2022/04/11 01:22:10;;;;;;;;;;;5.30;83.20;;;;;;5081568;28;19931;-77
2022/04/11 01:24:37;;;;;;;;;;;5.30;83.30;;;;;;5079460;28;19963;-78
2022/04/11 01:27:04;;;;;;;;;;;5.30;83.30;;;;;;5081373;28;19924;-78
2022/04/11 01:29:30;;;;;;;;;;;5.30;83.30;;;;;;5078464;28;20307;-77
2022/04/11 01:31:57;;;;;;;;;;;5.30;83.40;;;;;;5083163;28;19928;-78
2022/04/11 01:34:23;;;;;;;;;;;5.20;83.40;;;;;;5078953;28;21623;-79
2022/04/11 01:36:50;;;;;;;;;;;5.20;83.50;;;;;;5082564;28;19924;-79
2022/04/11 01:39:18;;;;;;;;;;;5.20;83.50;;;;;;5082592;28;19935;-79
2022/04/11 01:41:44;;;;;;;;;;;5.20;83.60;;;;;;5081150;28;19928;-78
2022/04/11 01:44:11;;;;;;;;;;;5.20;83.70;;;;;;5079324;28;19975;-76
2022/04/11 01:46:37;;;;;;;;;;;5.20;83.70;;;;;;5082108;28;20592;-79
2022/04/11 01:49:04;;;;;;;;;;;5.20;83.70;;;;;;5081584;28;20299;-76
2022/04/11 01:51:31;;;;;;;;;;;5.10;83.70;;;;;;5081248;28;19928;-79
2022/04/11 01:53:57;;;;;;;;;;;5.10;83.80;;;;;;5079346;28;20375;-78
2022/04/11 01:56:25;;;;;;;;;;;5.10;83.80;;;;;;5081547;28;19932;-77
2022/04/11 01:58:52;;;;;;;;;;;5.10;83.90;;;;;;5080603;28;19935;-75
2022/04/11 02:01:18;;;;;;;;;;;5.10;83.90;;;;;;5086087;28;19931;-78
2022/04/11 02:03:45;;;;;;;;;;;5.10;84.00;;;;;;5084639;28;19931;-78
2022/04/11 02:06:12;;;;;;;;;;;5.10;84.00;;;;;;5083145;28;19928;-76
2022/04/11 02:08:38;;;;;;;;;;;5.10;84.10;;;;;;5084881;28;19935;-78
2022/04/11 02:11:05;;;;;;;;;;;5.10;84.10;;;;;;5086878;28;19928;-77
2022/04/11 02:13:33;;;;;;;;;;;5.00;84.10;;;;;;5089806;28;20587;-78
2022/04/11 02:16:00;;;;;;;;;;;5.00;84.10;;;;;;5084866;28;19935;-79
2022/04/11 02:18:26;;;;;;;;;;;5.00;84.10;;;;;;5084511;28;19929;-79
2022/04/11 02:20:53;;;;;;;;;;;5.00;84.20;;;;;;5085078;28;20608;-80
2022/04/11 02:23:20;;;;;;;;;;;5.00;84.30;;;;;;5085841;28;19932;-79
2022/04/11 02:25:46;;;;;;;;;;;5.00;84.30;;;;;;5086503;28;19928;-78
2022/04/11 02:28:13;;;;;;;;;;;5.00;84.40;;;;;;5080729;28;19928;-77
2022/04/11 02:30:41;;;;;;;;;;;5.00;84.40;;;;;;5083694;28;19934;-79
2022/04/11 02:33:07;;;;;;;;;;;5.00;84.40;;;;;;5082752;28;19928;-80
2022/04/11 02:35:34;;;;;;;;;;;4.90;84.40;;;;;;5086471;28;19932;-79
2022/04/11 02:38:01;;;;;;;;;;;4.90;84.40;;;;;;5081943;28;19928;-78
2022/04/11 02:40:27;;;;;;;;;;;4.90;84.50;;;;;;5085200;28;19928;-79
2022/04/11 02:42:54;;;;;;;;;;;4.90;84.50;;;;;;5085177;28;21052;-79
2022/04/11 02:45:20;;;;;;;;;;;4.90;84.60;;;;;;5082480;28;20300;-79
2022/04/11 02:47:48;;;;;;;;;;;4.90;84.60;;;;;;5084139;28;20497;-80
2022/04/11 02:50:15;;;;;;;;;;;4.90;84.70;;;;;;5084428;28;19928;-77
2022/04/11 02:52:41;;;;;;;;;;;4.90;84.70;;;;;;5083131;28;19928;-78
2022/04/11 02:55:09;;;;;;;;;;;4.90;84.80;;;;;;5081575;28;19935;-79
2022/04/11 02:57:36;;;;;;;;;;;4.80;84.80;;;;;;5085752;28;19936;-79
2022/04/11 03:00:05;;;;;;;;;;;4.90;84.90;;;;;;5081836;28;19928;-78
2022/04/11 03:02:31;;;;;;;;;;;4.80;84.80;;;;;;5084348;28;19963;-78
2022/04/11 03:04:59;;;;;;;;;;;4.80;84.80;;;;;;5085885;28;19928;-79
2022/04/11 03:07:27;;;;;;;;;;;4.80;84.90;;;;;;5083094;28;19938;-79
2022/04/11 03:09:54;;;;;;;;;;;4.80;85.00;;;;;;5083641;28;19924;-79
2022/04/11 03:12:20;;;;;;;;;;;4.80;85.00;;;;;;5087260;28;19932;-79
2022/04/11 03:14:48;;;;;;;;;;;4.80;85.00;;;;;;5086912;28;20022;-77
2022/04/11 03:17:14;;;;;;;;;;;4.80;85.00;;;;;;5086716;28;19928;-78
2022/04/11 03:19:41;;;;;;;;;;;4.80;85.10;;;;;;5084850;28;19928;-79
2022/04/11 03:22:09;;;;;;;;;;;4.70;85.10;;;;;;5085329;28;19928;-77
2022/04/11 03:24:35;;;;;;;;;;;4.70;85.00;;;;;;5082896;28;19935;-78
2022/04/11 03:27:02;;;;;;;;;;;4.70;85.10;;;;;;5086420;28;20335;-76
2022/04/11 03:29:29;;;;;;;;;;;4.70;85.10;;;;;;5080588;28;19928;-78
2022/04/11 03:31:55;;;;;;;;;;;4.70;85.20;;;;;;5092752;28;19934;-80
2022/04/11 03:34:22;;;;;;;;;;;4.70;85.20;;;;;;5085367;28;20478;-80
2022/04/11 03:36:49;;;;;;;;;;;4.70;85.20;;;;;;5085358;28;20050;-79
2022/04/11 03:39:17;;;;;;;;;;;4.70;85.30;;;;;;5085564;28;19928;-78
2022/04/11 03:41:44;;;;;;;;;;;4.70;85.30;;;;;;5085853;28;19931;-79
2022/04/11 03:44:11;;;;;;;;;;;4.60;85.20;;;;;;5080985;28;19971;-78
2022/04/11 03:46:37;;;;;;;;;;;4.60;85.30;;;;;;5085381;28;19928;-79
2022/04/11 03:49:04;;;;;;;;;;;4.70;85.40;;;;;;5082053;28;19927;-77
2022/04/11 03:51:31;;;;;;;;;;;4.60;85.40;;;;;;5086477;28;19927;-78
2022/04/11 03:53:57;;;;;;;;;;;4.60;85.40;;;;;;5083282;28;19928;-78
2022/04/11 03:56:25;;;;;;;;;;;4.60;85.40;;;;;;5081747;28;19932;-79
2022/04/11 03:58:51;;;;;;;;;;;4.60;85.40;;;;;;5082279;28;19927;-77
2022/04/11 04:01:18;;;;;;;;;;;4.60;85.50;;;;;;5085069;28;19950;-80
2022/04/11 04:03:45;;;;;;;;;;;4.60;85.50;;;;;;5084762;28;19966;-78
2022/04/11 04:06:11;;;;;;;;;;;4.60;85.50;;;;;;5083182;28;19928;-78
2022/04/11 04:08:38;;;;;;;;;;;4.50;85.50;;;;;;5081381;28;20016;-79
2022/04/11 04:11:05;;;;;;;;;;;4.50;85.50;;;;;;5084233;28;19928;-78
2022/04/11 04:13:34;;;;;;;;;;;4.50;85.50;;;;;;5082216;28;20204;-79
2022/04/11 04:16:01;;;;;;;;;;;4.50;85.50;;;;;;5080456;28;19924;-80
2022/04/11 04:18:27;;;;;;;;;;;4.50;85.60;;;;;;5080240;28;19932;-79
2022/04/11 04:20:54;;;;;;;;;;;4.50;85.50;;;;;;5084766;28;20311;-78
2022/04/11 04:23:20;;;;;;;;;;;4.50;85.60;;;;;;5081081;28;20399;-79
2022/04/11 04:25:47;;;;;;;;;;;4.50;85.60;;;;;;5081169;28;19928;-80
2022/04/11 04:28:17;;;;;;;;;;;4.40;85.60;;;;;;5082060;28;19932;-78
2022/04/11 04:30:45;;;;;;;;;;;4.40;85.70;;;;;;5082040;28;19950;-77
2022/04/11 04:33:12;;;;;;;;;;;4.40;85.70;;;;;;5085345;28;20029;-78
2022/04/11 04:35:39;;;;;;;;;;;4.40;85.70;;;;;;5086238;28;19935;-79
2022/04/11 04:38:05;;;;;;;;;;;4.40;85.70;;;;;;5083557;28;20398;-77
2022/04/11 04:40:32;;;;;;;;;;;4.40;85.70;;;;;;5086895;28;20402;-79
2022/04/11 04:42:59;;;;;;;;;;;4.40;85.70;;;;;;5080292;28;19928;-79
2022/04/11 04:45:25;;;;;;;;;;;4.30;85.70;;;;;;5081208;28;20586;-78
2022/04/11 04:47:53;;;;;;;;;;;4.30;85.80;;;;;;5081300;28;19928;-79
2022/04/11 04:50:20;;;;;;;;;;;4.30;85.80;;;;;;5084067;28;19928;-78
2022/04/11 04:52:46;;;;;;;;;;;4.30;85.80;;;;;;5079354;28;19928;-78
2022/04/11 04:55:13;;;;;;;;;;;4.30;85.80;;;;;;5080933;28;19935;-78
2022/04/11 04:57:39;;;;;;;;;;;4.30;85.90;;;;;;5084539;28;19929;-78
2022/04/11 05:00:07;;;;;;;;;;;4.20;85.80;;;;;;5079222;28;19928;-76
2022/04/11 05:02:37;;;;;;;;;;;4.20;85.80;;;;;;5076196;28;20472;-79
2022/04/11 05:05:06;;;;;;;;;;;4.20;85.80;;;;;;5083440;28;19928;-78
2022/04/11 05:07:33;;;;;;;;;;;4.20;85.90;;;;;;5083063;28;20750;-78
2022/04/11 05:09:59;;;;;;;;;;;4.20;85.80;;;;;;5080556;28;19928;-77
2022/04/11 05:12:26;;;;;;;;;;;4.10;85.80;;;;;;5080573;28;19936;-78
2022/04/11 05:14:53;;;;;;;;;;;4.10;85.80;;;;;;5077857;28;19935;-79
2022/04/11 05:17:19;;;;;;;;;;;4.10;85.90;;;;;;5083209;28;19928;-78
2022/04/11 05:19:46;;;;;;;;;;;4.10;85.90;;;;;;5082065;28;19928;-76
2022/04/11 05:22:13;;;;;;;;;;;4.10;85.90;;;;;;5080022;28;19924;-78
2022/04/11 05:24:40;;;;;;;;;;;4.10;86.00;;;;;;5082073;28;19935;-77
2022/04/11 05:27:07;;;;;;;;;;;4.10;85.70;;;;;;5076532;28;20517;-67
2022/04/11 05:29:33;;;;;;;;;;;3.90;85.90;;;;;;5067832;28;19925;-70
2022/04/11 05:32:00;;;;;;;;;;;3.80;86.60;;;;;;5079549;28;19928;-72
2022/04/11 05:34:26;;;;;;;;;;;3.80;86.90;;;;;;5074951;28;19932;-72
2022/04/11 05:36:53;;;;;;;;;;;3.80;87.10;;;;;;5083147;28;20366;-71
2022/04/11 05:39:21;;;;;;;;;;;3.80;87.00;;;;;;5070165;28;19929;-69
2022/04/11 05:41:47;;;;;;;;;;;3.80;86.90;;;;;;5079538;28;20468;-71
2022/04/11 05:44:14;;;;;;;;;;;3.80;86.90;;;;;;5079271;28;20760;-68
2022/04/11 05:46:40;;;;;;;;;;;3.80;86.90;;;;;;5082855;28;20355;-70
2022/04/11 05:49:07;;;;;;;;;;;3.80;86.80;;;;;;5080073;28;19935;-70
2022/04/11 05:51:33;;;;;;;;;;;3.80;86.80;;;;;;5077930;28;19929;-73
2022/04/11 05:54:00;;;;;;;;;;;3.80;86.70;;;;;;5081066;28;20494;-71
2022/04/11 05:56:28;;;;;;;;;;;3.80;86.60;;;;;;5082123;28;20118;-71
2022/04/11 05:58:54;;;;;;;;;;;3.80;86.60;;;;;;5076609;28;19935;-68
2022/04/11 06:01:21;;;;;;;;;;;3.80;86.50;;;;;;5083143;28;19939;-79
2022/04/11 06:03:48;;;;;;;;;;;3.80;86.50;;;;;;5084332;28;19927;-78
2022/04/11 06:06:15;;;;;;;;;;;3.80;86.50;;;;;;5086564;28;19924;-78
2022/04/11 06:08:41;;;;;;;;;;;3.80;86.50;;;;;;5087285;28;19924;-78
2022/04/11 06:11:08;;;;;;;;;;;3.80;86.40;;;;;;5090091;28;19961;-76
2022/04/11 06:13:36;;;;;;;;;;;3.80;86.50;;;;;;5093918;22;19935;-72
2022/04/11 06:16:04;;;;;;;;;;;3.80;86.60;;;;;;5075436;28;20292;-72
2022/04/11 06:18:30;;;;;;;;;;;3.80;86.50;;;;;;5070265;28;19924;-74
2022/04/11 06:20:57;;;;;;;;;;;3.80;86.50;;;;;;5068780;28;19925;-72
2022/04/11 06:23:23;;;;;;;;;;;3.80;86.50;;;;;;5066231;28;19932;-75
2022/04/11 06:25:50;;;;;;;;;;;3.80;86.50;;;;;;5059058;28;19925;-74
2022/04/11 06:28:16;;;;;;;;;;;3.80;86.50;;;;;;5060244;28;20326;-73
2022/04/11 06:30:44;;;;;;;;;;;3.80;86.50;;;;;;5048382;28;19955;-74
2022/04/11 06:33:11;;;;;;;;;;;3.80;86.60;;;;;;5057746;28;19928;-74
2022/04/11 06:35:37;;;;;;;;;;;3.80;86.60;;;;;;5060181;28;19925;-73
2022/04/11 06:38:04;;;;;;;;;;;3.80;86.60;;;;;;5060122;28;19924;-72
2022/04/11 06:40:30;;;;;;;;;;;3.70;86.50;;;;;;5061393;28;19924;-74
2022/04/11 06:42:57;;;;;;;;;;;3.80;86.60;;;;;;5059186;28;19932;-74
2022/04/11 06:45:24;;;;;;;;;;;3.80;86.60;;;;;;5055867;28;19932;-74
2022/04/11 06:47:52;;;;;;;;;;;3.80;86.50;;;;;;5065038;28;19928;-74
2022/04/11 06:50:18;;;;;;;;;;;3.80;86.60;;;;;;5063001;28;20163;-73
2022/04/11 06:52:45;;;;;;;;;;;3.80;86.60;;;;;;5063066;28;19936;-75
2022/04/11 06:55:11;;;;;;;;;;;3.80;88.40;;;;;;5060587;28;19928;-73
2022/04/11 06:57:38;;;;;;;;;;;3.90;90.00;;;;;;5059752;28;19932;-74
2022/04/11 07:00:05;;;;;;;;;;;3.90;90.10;;;;;;5059588;28;19936;-73
2022/04/11 07:02:32;;;;;;;;;;;4.00;90.10;;;;;;5061750;28;20067;-74
2022/04/11 07:05:00;;;;;;;;;;;4.00;89.90;;;;;;5057302;28;19932;-74
2022/04/11 07:07:26;;;;;;;;;;;4.10;89.60;;;;;;5063463;28;19929;-74
2022/04/11 07:09:53;;;;;;;;;;;4.10;89.30;;;;;;5058248;28;20786;-74
2022/04/11 07:12:19;;;;;;;;;;;4.20;89.00;;;;;;5058958;28;19932;-75
2022/04/11 07:14:46;;;;;;;;;;;4.20;88.80;;;;;;5058233;28;19925;-74
2022/04/11 07:17:12;;;;;;;;;;;4.20;88.50;;;;;;5064327;28;19929;-74
2022/04/11 07:19:39;;;;;;;;;;;4.30;88.40;;;;;;5056400;28;20015;-73
2022/04/11 07:22:07;;;;;;;;;;;4.30;88.90;;;;;;5055519;28;19966;-74
2022/04/11 07:24:36;;;;;;;;;;;4.40;88.10;;;;;;5057030;28;19933;-74
2022/04/11 07:27:03;;;;;;;;;;;4.40;88.00;;;;;;5063031;28;19935;-74
2022/04/11 07:29:30;;;;;;;;;;;4.40;87.70;;;;;;5054308;28;19932;-74
2022/04/11 07:31:57;;;;;;;;;;;4.50;87.70;;;;;;5057765;28;19932;-74
2022/04/11 07:34:23;;;;;;;;;;;4.50;87.50;;;;;;5054250;28;20637;-75
2022/04/11 07:36:50;;;;;;;;;;;4.50;87.40;;;;;;5059707;28;19928;-74
2022/04/11 07:39:19;;;;;;;;;;;4.50;87.20;;;;;;5057948;28;19932;-75
2022/04/11 07:41:45;;;;;;;;;;;4.60;87.20;;;;;;5055812;28;20007;-75
2022/04/11 07:44:12;;;;;;;;;;;4.60;87.20;;;;;;5057391;28;19935;-74
2022/04/11 07:46:39;;;;;;;;;;;4.60;87.10;;;;;;5058413;28;20015;-74
2022/04/11 07:49:05;;;;;;;;;;;4.60;87.00;;;;;;5061411;28;19931;-75
2022/04/11 07:51:32;;;;;;;;;;;4.70;86.90;;;;;;5062718;28;20003;-75
2022/04/11 07:53:58;;;;;;;;;;;4.70;86.90;;;;;;5058031;28;19932;-75
2022/04/11 07:56:26;;;;;;;;;;;4.80;86.80;;;;;;5060454;28;19932;-75
2022/04/11 07:58:53;;;;;;;;;;;4.80;86.70;;;;;;5056548;28;19931;-74
2022/04/11 08:01:19;;;;;;;;;;;4.80;86.60;;;;;;5059065;28;19932;-75
2022/04/11 08:03:47;;;;;;;;;;;4.90;86.60;;;;;;5061429;28;19947;-74
2022/04/11 08:06:13;;;;;;;;;;;4.90;86.50;;;;;;5057440;28;19940;-72
2022/04/11 08:08:44;;;;;;;;;;;4.90;86.40;;;;;;5060951;28;19924;-75
2022/04/11 08:11:11;;;;;;;;;;;5.00;86.30;;;;;;5054148;28;19954;-72
2022/04/11 08:13:39;;;;;;;;;;;5.00;86.30;;;;;;5060163;28;20709;-73
2022/04/11 08:16:05;;;;;;;;;;;5.10;86.20;;;;;;5055359;28;20003;-74
2022/04/11 08:18:32;;;;;;;;;;;5.10;86.10;;;;;;5058889;28;19939;-74
2022/04/11 08:20:59;;;;;;;;;;;5.10;86.10;;;;;;5053393;28;20389;-75
2022/04/11 08:23:25;;;;;;;;;;;5.20;86.10;;;;;;5061851;28;20372;-75
2022/04/11 08:25:52;;;;;;;;;;;5.20;86.00;;;;;;5052116;28;19928;-73
2022/04/11 08:28:19;;;;;;;;;;;5.20;86.00;;;;;;5053548;28;19932;-74
2022/04/11 08:30:47;;;;;;;;;;;5.30;85.90;;;;;;5051092;28;19960;-73
2022/04/11 08:33:14;;;;;;;;;;;5.30;85.80;;;;;;5063607;28;19931;-75
2022/04/11 08:35:40;;;;;;;;;;;5.40;85.70;;;;;;5061595;28;19932;-75
2022/04/11 08:38:07;;;;;;;;;;;5.40;85.60;;;;;;5051198;28;19932;-74
2022/04/11 08:40:34;;;;;;;;;;;5.50;85.60;;;;;;5054850;28;19925;-74
2022/04/11 08:43:00;;;;;;;;;;;5.50;85.50;;;;;;5061083;28;19932;-74
2022/04/11 08:45:28;;;;;;;;;;;5.60;85.40;;;;;;5058941;28;19924;-75
2022/04/11 08:47:56;;;;;;;;;;;5.70;85.30;;;;;;5058814;28;20384;-74
2022/04/11 08:50:23;;;;;;;;;;;5.70;85.10;;;;;;5057907;28;20063;-75
2022/04/11 08:52:51;;;;;;;;;;;5.80;84.90;;;;;;5058094;28;19929;-75
2022/04/11 08:55:18;;;;;;;;;;;5.80;84.60;;;;;;5057464;28;19940;-75
2022/04/11 08:57:44;;;;;;;;;;;5.90;84.30;;;;;;5060530;28;19930;-76
2022/04/11 09:00:13;;;;;;;;;;;6.00;84.00;;;;;;5055929;28;19924;-78
2022/04/11 09:02:41;;;;;;;;;;;6.00;83.60;;;;;;5058220;28;20769;-75
2022/04/11 09:05:10;;;;;;;;;;;6.10;83.40;;;;;;5058808;28;19928;-75
2022/04/11 09:07:47;;;;;;;;;;;6.10;83.00;;;;;;5052997;28;19929;-79
2022/04/11 09:10:13;;;;;;;;;;;6.20;82.80;;;;;;5055501;28;19951;-70
2022/04/11 09:12:49;;;;;;;;;;;6.30;82.50;;;;;;5061342;28;19963;-69
2022/04/11 09:15:16;;;;;;;;;;;6.40;82.40;;;;;;5054916;28;19928;-68
2022/04/11 09:17:43;;;;;;;;;;;6.40;81.90;;;;;;5063352;28;20308;-68
2022/04/11 09:20:12;;;;;;;;;;;6.50;81.60;;;;;;5054586;28;20404;-68
2022/04/11 09:22:39;;;;;;;;;;;6.60;81.30;;;;;;5054356;28;19932;-68
2022/04/11 09:25:07;;;;;;;;;;;6.60;81.00;;;;;;5061495;28;20431;-70
2022/04/11 09:27:33;;;;;;;;;;;6.70;80.80;;;;;;5060228;28;19940;-70
2022/04/11 09:30:00;;;;;;;;;;;6.90;80.70;;;;;;5056393;28;19932;-69
2022/04/11 09:32:26;;;;;;;;;;;6.90;81.20;;;;;;5059389;28;19936;-68
2022/04/11 09:34:53;;;;;;;;;;;6.90;80.10;;;;;;5061209;28;20670;-69
2022/04/11 09:37:21;;;;;;;;;;;7.00;79.70;;;;;;5059743;28;20424;-69
2022/04/11 09:39:54;;;;;;;;;;;7.10;79.50;;;;;;5058744;28;20450;-69
2022/04/11 09:42:29;;;;;;;;;;;7.20;79.50;;;;;;5061091;28;19932;-70
2022/04/11 09:44:59;;;;;;;;;;;7.20;79.30;;;;;;5062933;28;19935;-70
2022/04/11 09:47:25;;;;;;;;;;;7.30;78.90;;;;;;5061976;28;19929;-70
2022/04/11 09:49:52;;;;;;;;;;;7.30;78.40;;;;;;5060009;28;19932;-69
2022/04/11 09:52:19;;;;;;;;;;;7.50;78.20;;;;;;5050880;28;19924;-69
2022/04/11 09:54:47;;;;;;;;;;;7.60;78.00;;;;;;5052197;28;19935;-68
2022/04/11 09:57:14;;;;;;;;;;;7.60;77.50;;;;;;5057720;28;19968;-70
2022/04/11 09:59:43;;;;;;;;;;;7.70;77.30;;;;;;5054275;28;19935;-70
2022/04/11 10:02:10;;;;;;;;;;;7.80;77.00;;;;;;5064629;28;19971;-69
2022/04/11 10:04:38;;;;;;;;;;;7.80;76.90;;;;;;5063853;28;19932;-70
2022/04/11 10:07:05;;;;;;;;;;;7.90;76.90;;;;;;5060684;28;19936;-68
2022/04/11 10:09:32;;;;;;;;;;;7.90;76.70;;;;;;5058971;28;19933;-69
2022/04/11 10:12:03;;;;;;;;;;;8.00;77.00;;;;;;5055829;28;20855;-70
2022/04/11 10:14:29;;;;;;;;;;;8.10;76.50;;;;;;5061190;28;19951;-69
2022/04/11 10:16:57;;;;;;;;;;;8.20;76.40;;;;;;5061678;28;19957;-70
2022/04/11 10:19:25;;;;;;;;;;;8.20;76.30;;;;;;5063276;28;19939;-70
2022/04/11 10:21:53;;;;;;;;;;;8.30;75.80;;;;;;5062790;28;19928;-69
2022/04/11 10:24:28;;;;;;;;;;;8.40;76.10;;;;;;5061443;28;19936;-69
2022/04/11 10:26:56;;;;;;;;;;;8.50;75.80;;;;;;5062388;28;19929;-70
2022/04/11 10:29:33;;;;;;;;;;;8.50;75.90;;;;;;5062397;28;19930;-70
2022/04/11 10:32:07;;;;;;;;;;;8.50;75.60;;;;;;5065536;28;19928;-70
2022/04/11 10:34:54;;;;;;;;;;;8.70;75.20;;;;;;5065203;28;19936;-69
2022/04/11 10:37:22;;;;;;;;;;;8.70;75.00;;;;;;5059984;28;20023;-69
2022/04/11 10:39:49;;;;;;;;;;;8.80;74.10;;;;;;5055423;28;19929;-70
2022/04/11 10:42:17;;;;;;;;;;;8.90;73.70;;;;;;5063727;28;19928;-70
2022/04/11 10:44:46;;;;;;;;;;;8.90;73.60;;;;;;5062296;28;20397;-69
2022/04/11 10:47:21;;;;;;;;;;;9.10;73.60;;;;;;5062644;28;20023;-70
2022/04/11 10:50:06;;;;;;;;;;;9.10;73.40;;;;;;5063182;28;19928;-70
2022/04/11 10:52:35;;;;;;;;;;;9.20;73.30;;;;;;5060183;28;19974;-70
2022/04/11 10:55:05;;;;;;;;;;;9.30;73.00;;;;;;5066259;28;19975;-71
2022/04/11 10:57:34;;;;;;;;;;;9.40;72.90;;;;;;5064907;28;20399;-70
2022/04/11 11:00:07;;;;;;;;;;;9.50;72.80;;;;;;5056208;28;19932;-71
2022/04/11 11:02:52;;;;;;;;;;;9.50;71.70;;;;;;5064587;28;19928;-69
2022/04/11 11:05:22;;;;;;;;;;;9.60;71.70;;;;;;5065670;28;19929;-69
2022/04/11 11:07:49;;;;;;;;;;;9.70;71.20;;;;;;5056396;28;20643;-69
2022/04/11 11:10:26;;;;;;;;;;;9.80;71.30;;;;;;5059663;28;20027;-70
2022/04/11 11:13:13;;;;;;;;;;;9.80;70.80;;;;;;5064242;28;19939;-70
2022/04/11 11:15:41;;;;;;;;;;;9.90;70.70;;;;;;5061668;28;20982;-70
2022/04/11 11:18:08;;;;;;;;;;;10.00;70.30;;;;;;5060988;28;19928;-70
2022/04/11 11:20:48;;;;;;;;;;;10.10;70.30;;;;;;5058919;28;19929;-68
2022/04/11 11:23:16;;;;;;;;;;;10.20;70.00;;;;;;5062010;28;19936;-69
2022/04/11 11:25:43;;;;;;;;;;;10.30;69.20;;;;;;5061282;28;19964;-70
2022/04/11 11:28:12;;;;;;;;;;;10.30;69.10;;;;;;5061842;28;19928;-70
2022/04/11 11:30:38;;;;;;;;;;;10.40;68.10;;;;;;5059939;28;20263;-70
2022/04/11 11:33:08;;;;;;;;;;;10.50;68.20;;;;;;5064377;28;20024;-70
2022/04/11 11:35:34;;;;;;;;;;;10.50;68.00;;;;;;5064230;28;19932;-70
2022/04/11 11:38:02;;;;;;;;;;;10.60;68.10;;;;;;5063503;28;20403;-70
2022/04/11 11:40:29;;;;;;;;;;;10.70;68.00;;;;;;5054341;28;19935;-70
2022/04/11 11:42:56;;;;;;;;;;;10.80;67.60;;;;;;5058753;28;19977;-70
2022/04/11 11:45:26;;;;;;;;;;;10.90;68.40;;;;;;5063840;28;20047;-70
2022/04/11 11:47:53;;;;;;;;;;;10.90;67.60;;;;;;5062240;28;20743;-69
2022/04/11 11:50:21;;;;;;;;;;;11.00;67.40;;;;;;5054747;28;20649;-70
2022/04/11 11:52:56;;;;;;;;;;;11.10;67.20;;;;;;5058748;28;19991;-70
2022/04/11 11:55:23;;;;;;;;;;;11.10;66.90;;;;;;5063711;28;20043;-70
2022/04/11 11:58:02;;;;;;;;;;;11.20;66.70;;;;;;5060476;28;19929;-69
2022/04/11 12:00:33;;;;;;;;;;;11.30;66.40;;;;;;5056531;28;19929;-70
2022/04/11 12:05:46;;;;;;;;;;;11.40;65.30;;;;;;5057752;28;19931;-71
2022/04/11 12:08:17;;;;;;;;;;;11.50;65.50;;;;;;5060408;28;19935;-69
2022/04/11 12:10:44;;;;;;;;;;;11.50;66.30;;;;;;5058196;28;19934;-70
2022/04/11 12:13:11;;;;;;;;;;;11.60;65.40;;;;;;5063101;28;19928;-70
2022/04/11 12:15:38;;;;;;;;;;;11.70;65.10;;;;;;5061976;28;20578;-70
2022/04/11 12:18:05;;;;;;;;;;;11.70;64.90;;;;;;5063564;28;19928;-70
2022/04/11 12:20:32;;;;;;;;;;;11.80;64.70;;;;;;5060243;28;19932;-70
2022/04/11 12:23:04;;;;;;;;;;;11.90;64.70;;;;;;5064702;28;19936;-71
2022/04/11 12:25:31;;;;;;;;;;;11.90;64.70;;;;;;5061526;28;19940;-69
2022/04/11 12:28:13;;;;;;;;;;;12.00;64.20;;;;;;5063475;28;19935;-70
2022/04/11 12:30:41;;;;;;;;;;;12.10;64.20;;;;;;5059293;28;19928;-70
2022/04/11 12:33:08;;;;;;;;;;;12.10;63.90;;;;;;5063204;28;19932;-71
2022/04/11 12:35:36;;;;;;;;;;;12.20;63.80;;;;;;5063033;28;19932;-71
2022/04/11 12:38:07;;;;;;;;;;;12.30;63.30;;;;;;5060736;28;20053;-70
2022/04/11 12:40:44;;;;;;;;;;;12.30;63.20;;;;;;5050686;28;19936;-69
2022/04/11 12:43:11;;;;;;;;;;;12.40;63.20;;;;;;5061326;28;19966;-70
2022/04/11 12:45:38;;;;;;;;;;;12.40;63.00;;;;;;5058352;28;19928;-70
2022/04/11 12:48:05;;;;;;;;;;;12.50;63.00;;;;;;5059421;28;19935;-69
2022/04/11 12:50:32;;;;;;;;;;;12.50;63.50;;;;;;5058670;28;20015;-71
2022/04/11 12:52:59;;;;;;;;;;;12.60;62.40;;;;;;5064039;28;19928;-71
2022/04/11 12:55:28;;;;;;;;;;;12.60;61.90;;;;;;5063137;28;19971;-71
2022/04/11 12:58:02;;;;;;;;;;;12.70;62.20;;;;;;5061449;28;19940;-71
2022/04/11 13:00:29;;;;;;;;;;;12.80;60.80;;;;;;5057488;28;19935;-71
2022/04/11 13:02:56;;;;;;;;;;;12.90;61.00;;;;;;5060802;28;20353;-69
2022/04/11 13:05:22;;;;;;;;;;;12.90;61.00;;;;;;5062729;28;19925;-70
2022/04/11 13:07:50;;;;;;;;;;;13.00;61.10;;;;;;5057753;28;19936;-71
2022/04/11 13:10:18;;;;;;;;;;;13.00;60.70;;;;;;5059111;28;19935;-71
2022/04/11 13:12:46;;;;;;;;;;;13.10;60.10;;;;;;5062029;28;19928;-70
2022/04/11 13:15:13;;;;;;;;;;;13.10;60.40;;;;;;5056875;28;19924;-70
2022/04/11 13:20:26;;;;;;;;;;;13.20;60.00;;;;;;5056592;28;19931;-69
2022/04/11 13:22:53;;;;;;;;;;;13.30;59.50;;;;;;5062378;28;20047;-70
2022/04/11 13:25:20;;;;;;;;;;;13.40;59.20;;;;;;5060977;28;19928;-70
2022/04/11 13:27:48;;;;;;;;;;;13.40;58.90;;;;;;5059771;28;20027;-71
2022/04/11 13:30:15;;;;;;;;;;;13.50;58.80;;;;;;5056946;28;19935;-69
2022/04/11 13:32:42;;;;;;;;;;;13.60;58.70;;;;;;5061452;28;19936;-70
2022/04/11 13:35:09;;;;;;;;;;;13.70;58.50;;;;;;5061643;28;19928;-71
2022/04/11 13:37:36;;;;;;;;;;;13.70;58.40;;;;;;5060811;28;19932;-70
2022/04/11 13:40:03;;;;;;;;;;;13.80;58.80;;;;;;5052553;28;19928;-68
2022/04/11 13:42:29;;;;;;;;;;;13.80;58.20;;;;;;5054349;28;19939;-77
2022/04/11 13:44:57;;;;;;;;;;;13.90;58.10;;;;;;5062294;28;20404;-79
2022/04/11 13:47:24;;;;;;;;;;;13.90;58.00;;;;;;5056658;28;19932;-76
2022/04/11 13:49:50;;;;;;;;;;;14.00;58.00;;;;;;5051242;28;19932;-75
2022/04/11 13:52:18;;;;;;;;;;;14.10;57.90;;;;;;5057487;28;19932;-70
2022/04/11 13:54:45;;;;;;;;;;;14.10;57.60;;;;;;5063106;28;19928;-69
2022/04/11 13:57:11;;;;;;;;;;;14.10;57.60;;;;;;5061502;28;20015;-67
2022/04/11 13:59:40;;;;;;;;;;;14.30;57.80;;;;;;5050220;28;19939;-69
2022/04/11 14:02:09;;;;;;;;;;;14.30;57.70;;;;;;5062107;28;20015;-68
2022/04/11 14:04:35;;;;;;;;;;;14.40;57.40;;;;;;5057665;28;21392;-69
2022/04/11 14:07:02;;;;;;;;;;;14.50;56.70;;;;;;5055361;28;19940;-70
2022/04/11 14:09:29;;;;;;;;;;;14.50;56.70;;;;;;5060383;28;19935;-71
2022/04/11 14:11:56;;;;;;;;;;;14.60;56.70;;;;;;5061968;28;20415;-71
2022/04/11 14:14:23;;;;;;;;;;;14.60;56.50;;;;;;5059170;28;19932;-70
2022/04/11 14:16:50;;;;;;;;;;;14.70;56.40;;;;;;5063747;28;20050;-71
2022/04/11 14:19:17;;;;;;;;;;;14.80;56.40;;;;;;5056317;28;20308;-72
2022/04/11 14:21:44;;;;;;;;;;;14.90;56.30;;;;;;5058091;28;20678;-71
2022/04/11 14:24:10;;;;;;;;;;;14.90;56.10;;;;;;5059156;28;19939;-70
2022/04/11 14:26:37;;;;;;;;;;;14.90;55.50;;;;;;5055637;28;19932;-70
2022/04/11 14:29:04;;;;;;;;;;;15.00;55.80;;;;;;5059034;28;19999;-70
2022/04/11 14:31:30;;;;;;;;;;;15.10;56.00;;;;;;5055735;28;19928;-71
2022/04/11 14:33:57;;;;;;;;;;;15.20;55.90;;;;;;5057381;28;19941;-70